sensor_id;sensor_type;location;lat;lon;timestamp;P1;durP1;ratioP1;P2;durP2;ratioP2
4839;SDS011;2434;48.486;7.964;2023-03-01T00:01:23;20.67;;;12.30;;
4839;SDS011;2434;48.486;7.964;2023-03-01T00:03:53;21.67;;;12.73;;
4839;SDS011;2434;48.486;7.964;2023-03-01T00:06:22;23.23;;;13.17;;
4839;SDS011;2434;48.486;7.964;2023-03-01T00:08:50;25.27;;;14.27;;
4839;SDS011;2434;48.486;7.964;2023-03-01T00:11:19;25.03;;;14.60;;
4839;SDS011;2434;48.486;7.964;2023-03-01T00:13:50;28.57;;;14.60;;
4839;SDS011;2434;48.486;7.964;2023-03-01T00:16:20;24.93;;;14.13;;
4839;SDS011;2434;48.486;7.964;2023-03-01T00:18:54;24.90;;;12.97;;
4839;SDS011;2434;48.486;7.964;2023-03-01T00:21:23;21.93;;;14.97;;
4839;SDS011;2434;48.486;7.964;2023-03-01T00:23:53;21.67;;;13.43;;
4839;SDS011;2434;48.486;7.964;2023-03-01T00:26:21;18.43;;;12.13;;
4839;SDS011;2434;48.486;7.964;2023-03-01T00:28:51;18.03;;;11.87;;
4839;SDS011;2434;48.486;7.964;2023-03-01T00:31:25;20.47;;;13.50;;
4839;SDS011;2434;48.486;7.964;2023-03-01T00:33:56;21.37;;;13.47;;
4839;SDS011;2434;48.486;7.964;2023-03-01T00:36:26;17.80;;;11.90;;
4839;SDS011;2434;48.486;7.964;2023-03-01T00:38:58;20.33;;;12.10;;
4839;SDS011;2434;48.486;7.964;2023-03-01T00:41:27;20.00;;;13.03;;
4839;SDS011;2434;48.486;7.964;2023-03-01T00:43:55;21.73;;;13.17;;
4839;SDS011;2434;48.486;7.964;2023-03-01T00:46:26;22.87;;;13.63;;
4839;SDS011;2434;48.486;7.964;2023-03-01T00:48:57;19.07;;;13.50;;
4839;SDS011;2434;48.486;7.964;2023-03-01T00:51:29;23.03;;;13.90;;
4839;SDS011;2434;48.486;7.964;2023-03-01T00:53:58;26.93;;;15.77;;
4839;SDS011;2434;48.486;7.964;2023-03-01T00:56:28;22.70;;;13.77;;
4839;SDS011;2434;48.486;7.964;2023-03-01T00:58:57;25.20;;;15.53;;
4839;SDS011;2434;48.486;7.964;2023-03-01T01:01:28;21.87;;;14.50;;
4839;SDS011;2434;48.486;7.964;2023-03-01T01:03:58;41.67;;;23.13;;
4839;SDS011;2434;48.486;7.964;2023-03-01T01:06:28;33.10;;;17.70;;
4839;SDS011;2434;48.486;7.964;2023-03-01T01:08:59;25.60;;;13.23;;
4839;SDS011;2434;48.486;7.964;2023-03-01T01:11:28;19.40;;;11.83;;
4839;SDS011;2434;48.486;7.964;2023-03-01T01:13:57;17.73;;;11.80;;
4839;SDS011;2434;48.486;7.964;2023-03-01T01:16:29;20.77;;;13.33;;
4839;SDS011;2434;48.486;7.964;2023-03-01T01:18:58;18.50;;;12.73;;
4839;SDS011;2434;48.486;7.964;2023-03-01T01:21:27;31.17;;;17.13;;
4839;SDS011;2434;48.486;7.964;2023-03-01T01:23:55;27.83;;;15.80;;
4839;SDS011;2434;48.486;7.964;2023-03-01T01:26:25;29.40;;;17.30;;
4839;SDS011;2434;48.486;7.964;2023-03-01T01:28:55;34.03;;;20.30;;
4839;SDS011;2434;48.486;7.964;2023-03-01T01:31:24;33.20;;;19.30;;
4839;SDS011;2434;48.486;7.964;2023-03-01T01:33:54;38.17;;;20.37;;
4839;SDS011;2434;48.486;7.964;2023-03-01T01:36:23;29.10;;;16.50;;
4839;SDS011;2434;48.486;7.964;2023-03-01T01:38:51;35.70;;;19.93;;
4839;SDS011;2434;48.486;7.964;2023-03-01T01:41:20;37.17;;;18.07;;
4839;SDS011;2434;48.486;7.964;2023-03-01T01:44:08;32.70;;;16.97;;
4839;SDS011;2434;48.486;7.964;2023-03-01T01:46:39;22.50;;;14.77;;
4839;SDS011;2434;48.486;7.964;2023-03-01T01:49:15;24.47;;;15.20;;
4839;SDS011;2434;48.486;7.964;2023-03-01T01:51:51;29.23;;;16.57;;
4839;SDS011;2434;48.486;7.964;2023-03-01T01:54:25;24.60;;;16.43;;
4839;SDS011;2434;48.486;7.964;2023-03-01T01:56:59;42.03;;;20.83;;
4839;SDS011;2434;48.486;7.964;2023-03-01T01:59:30;26.00;;;15.80;;
4839;SDS011;2434;48.486;7.964;2023-03-01T02:02:00;23.80;;;14.33;;
4839;SDS011;2434;48.486;7.964;2023-03-01T02:04:32;27.10;;;16.23;;
4839;SDS011;2434;48.486;7.964;2023-03-01T02:07:01;28.50;;;17.00;;
4839;SDS011;2434;48.486;7.964;2023-03-01T02:09:34;26.37;;;15.43;;
4839;SDS011;2434;48.486;7.964;2023-03-01T02:12:03;23.80;;;15.20;;
4839;SDS011;2434;48.486;7.964;2023-03-01T02:14:33;22.20;;;14.87;;
4839;SDS011;2434;48.486;7.964;2023-03-01T02:17:01;29.67;;;14.87;;
4839;SDS011;2434;48.486;7.964;2023-03-01T02:19:35;28.97;;;16.53;;
4839;SDS011;2434;48.486;7.964;2023-03-01T02:22:13;26.27;;;16.47;;
4839;SDS011;2434;48.486;7.964;2023-03-01T02:24:50;22.70;;;14.90;;
4839;SDS011;2434;48.486;7.964;2023-03-01T02:27:32;21.33;;;15.17;;
4839;SDS011;2434;48.486;7.964;2023-03-01T02:30:14;21.53;;;14.67;;
4839;SDS011;2434;48.486;7.964;2023-03-01T02:32:43;28.43;;;15.60;;
4839;SDS011;2434;48.486;7.964;2023-03-01T02:35:12;22.77;;;14.87;;
4839;SDS011;2434;48.486;7.964;2023-03-01T02:37:43;24.40;;;14.63;;
4839;SDS011;2434;48.486;7.964;2023-03-01T02:40:13;20.83;;;14.87;;
4839;SDS011;2434;48.486;7.964;2023-03-01T02:42:47;24.10;;;15.50;;
4839;SDS011;2434;48.486;7.964;2023-03-01T02:45:19;22.93;;;14.53;;
4839;SDS011;2434;48.486;7.964;2023-03-01T02:47:49;31.13;;;16.30;;
4839;SDS011;2434;48.486;7.964;2023-03-01T02:53:16;24.37;;;15.20;;
4839;SDS011;2434;48.486;7.964;2023-03-01T02:55:50;21.37;;;13.97;;
4839;SDS011;2434;48.486;7.964;2023-03-01T02:58:19;28.27;;;15.50;;
4839;SDS011;2434;48.486;7.964;2023-03-01T03:00:50;26.53;;;14.43;;
4839;SDS011;2434;48.486;7.964;2023-03-01T03:03:19;27.77;;;14.63;;
4839;SDS011;2434;48.486;7.964;2023-03-01T03:05:49;22.57;;;14.70;;
4839;SDS011;2434;48.486;7.964;2023-03-01T03:08:17;27.47;;;15.33;;
4839;SDS011;2434;48.486;7.964;2023-03-01T03:10:51;27.60;;;14.87;;
4839;SDS011;2434;48.486;7.964;2023-03-01T03:13:19;26.23;;;15.30;;
4839;SDS011;2434;48.486;7.964;2023-03-01T03:15:50;25.73;;;15.60;;
4839;SDS011;2434;48.486;7.964;2023-03-01T03:18:18;21.43;;;14.50;;
4839;SDS011;2434;48.486;7.964;2023-03-01T03:20:47;24.93;;;15.07;;
4839;SDS011;2434;48.486;7.964;2023-03-01T03:23:19;27.07;;;15.47;;
4839;SDS011;2434;48.486;7.964;2023-03-01T03:25:48;27.10;;;15.87;;
4839;SDS011;2434;48.486;7.964;2023-03-01T03:28:17;24.97;;;16.10;;
4839;SDS011;2434;48.486;7.964;2023-03-01T03:30:45;24.50;;;14.67;;
4839;SDS011;2434;48.486;7.964;2023-03-01T03:33:15;22.83;;;15.43;;
4839;SDS011;2434;48.486;7.964;2023-03-01T03:35:44;29.10;;;16.83;;
4839;SDS011;2434;48.486;7.964;2023-03-01T03:38:14;25.67;;;15.57;;
4839;SDS011;2434;48.486;7.964;2023-03-01T03:40:45;22.23;;;14.40;;
4839;SDS011;2434;48.486;7.964;2023-03-01T03:43:14;25.37;;;16.10;;
4839;SDS011;2434;48.486;7.964;2023-03-01T03:45:44;28.83;;;16.87;;
4839;SDS011;2434;48.486;7.964;2023-03-01T03:48:12;23.23;;;15.87;;
4839;SDS011;2434;48.486;7.964;2023-03-01T03:50:46;25.07;;;15.60;;
4839;SDS011;2434;48.486;7.964;2023-03-01T03:53:15;23.10;;;14.53;;
4839;SDS011;2434;48.486;7.964;2023-03-01T03:55:43;26.37;;;16.13;;
4839;SDS011;2434;48.486;7.964;2023-03-01T03:58:15;25.90;;;15.17;;
4839;SDS011;2434;48.486;7.964;2023-03-01T04:00:47;23.30;;;14.13;;
4839;SDS011;2434;48.486;7.964;2023-03-01T04:03:17;23.40;;;16.37;;
4839;SDS011;2434;48.486;7.964;2023-03-01T04:05:48;23.30;;;14.60;;
4839;SDS011;2434;48.486;7.964;2023-03-01T04:08:17;22.37;;;14.57;;
4839;SDS011;2434;48.486;7.964;2023-03-01T04:10:47;22.00;;;14.90;;
4839;SDS011;2434;48.486;7.964;2023-03-01T04:13:17;23.73;;;15.07;;
4839;SDS011;2434;48.486;7.964;2023-03-01T04:15:48;23.07;;;14.90;;
4839;SDS011;2434;48.486;7.964;2023-03-01T04:18:17;27.03;;;15.33;;
4839;SDS011;2434;48.486;7.964;2023-03-01T04:20:48;20.90;;;13.23;;
4839;SDS011;2434;48.486;7.964;2023-03-01T04:23:21;24.40;;;16.10;;
4839;SDS011;2434;48.486;7.964;2023-03-01T04:25:50;29.33;;;15.60;;
4839;SDS011;2434;48.486;7.964;2023-03-01T04:28:21;24.57;;;15.03;;
4839;SDS011;2434;48.486;7.964;2023-03-01T04:30:51;22.20;;;13.53;;
4839;SDS011;2434;48.486;7.964;2023-03-01T04:33:20;25.00;;;14.90;;
4839;SDS011;2434;48.486;7.964;2023-03-01T04:35:50;23.00;;;14.97;;
4839;SDS011;2434;48.486;7.964;2023-03-01T04:38:19;26.23;;;15.17;;
4839;SDS011;2434;48.486;7.964;2023-03-01T04:40:48;26.97;;;15.40;;
4839;SDS011;2434;48.486;7.964;2023-03-01T04:43:16;21.73;;;14.37;;
4839;SDS011;2434;48.486;7.964;2023-03-01T04:45:44;23.87;;;14.70;;
4839;SDS011;2434;48.486;7.964;2023-03-01T04:48:13;26.50;;;15.83;;
4839;SDS011;2434;48.486;7.964;2023-03-01T04:50:41;25.97;;;14.47;;
4839;SDS011;2434;48.486;7.964;2023-03-01T04:53:11;24.97;;;14.47;;
4839;SDS011;2434;48.486;7.964;2023-03-01T04:55:39;25.20;;;15.10;;
4839;SDS011;2434;48.486;7.964;2023-03-01T04:58:07;22.20;;;14.57;;
4839;SDS011;2434;48.486;7.964;2023-03-01T05:00:35;24.10;;;14.47;;
4839;SDS011;2434;48.486;7.964;2023-03-01T05:03:03;21.90;;;15.10;;
4839;SDS011;2434;48.486;7.964;2023-03-01T05:05:32;25.83;;;16.60;;
4839;SDS011;2434;48.486;7.964;2023-03-01T05:08:03;37.23;;;15.53;;
4839;SDS011;2434;48.486;7.964;2023-03-01T05:10:35;23.20;;;15.37;;
4839;SDS011;2434;48.486;7.964;2023-03-01T05:13:05;23.27;;;14.80;;
4839;SDS011;2434;48.486;7.964;2023-03-01T05:15:33;25.30;;;16.10;;
4839;SDS011;2434;48.486;7.964;2023-03-01T05:18:03;26.57;;;14.97;;
4839;SDS011;2434;48.486;7.964;2023-03-01T05:20:33;25.07;;;15.33;;
4839;SDS011;2434;48.486;7.964;2023-03-01T05:23:02;23.37;;;14.50;;
4839;SDS011;2434;48.486;7.964;2023-03-01T05:25:32;25.40;;;15.20;;
4839;SDS011;2434;48.486;7.964;2023-03-01T05:28:07;26.23;;;15.53;;
4839;SDS011;2434;48.486;7.964;2023-03-01T05:30:38;24.80;;;15.80;;
4839;SDS011;2434;48.486;7.964;2023-03-01T05:33:07;27.50;;;17.00;;
4839;SDS011;2434;48.486;7.964;2023-03-01T05:35:40;25.13;;;15.80;;
4839;SDS011;2434;48.486;7.964;2023-03-01T05:38:09;28.97;;;17.97;;
4839;SDS011;2434;48.486;7.964;2023-03-01T05:40:41;35.17;;;18.70;;
4839;SDS011;2434;48.486;7.964;2023-03-01T05:43:11;47.93;;;24.20;;
4839;SDS011;2434;48.486;7.964;2023-03-01T05:45:40;34.40;;;19.30;;
4839;SDS011;2434;48.486;7.964;2023-03-01T05:48:09;32.43;;;17.67;;
4839;SDS011;2434;48.486;7.964;2023-03-01T05:50:39;24.07;;;15.27;;
4839;SDS011;2434;48.486;7.964;2023-03-01T05:53:10;25.30;;;15.33;;
4839;SDS011;2434;48.486;7.964;2023-03-01T05:55:41;22.33;;;14.40;;
4839;SDS011;2434;48.486;7.964;2023-03-01T05:58:10;26.30;;;16.17;;
4839;SDS011;2434;48.486;7.964;2023-03-01T06:00:41;25.73;;;16.23;;
4839;SDS011;2434;48.486;7.964;2023-03-01T06:03:11;22.73;;;14.30;;
4839;SDS011;2434;48.486;7.964;2023-03-01T06:05:41;23.60;;;15.30;;
4839;SDS011;2434;48.486;7.964;2023-03-01T06:08:10;21.67;;;14.60;;
4839;SDS011;2434;48.486;7.964;2023-03-01T06:10:40;24.30;;;15.17;;
4839;SDS011;2434;48.486;7.964;2023-03-01T06:13:08;22.03;;;14.17;;
4839;SDS011;2434;48.486;7.964;2023-03-01T06:15:37;27.07;;;15.90;;
4839;SDS011;2434;48.486;7.964;2023-03-01T06:18:05;28.63;;;14.83;;
4839;SDS011;2434;48.486;7.964;2023-03-01T06:20:33;26.47;;;14.20;;
4839;SDS011;2434;48.486;7.964;2023-03-01T06:23:02;24.07;;;15.53;;
4839;SDS011;2434;48.486;7.964;2023-03-01T06:25:30;28.97;;;17.17;;
4839;SDS011;2434;48.486;7.964;2023-03-01T06:28:00;33.13;;;17.07;;
4839;SDS011;2434;48.486;7.964;2023-03-01T06:30:28;26.13;;;15.33;;
4839;SDS011;2434;48.486;7.964;2023-03-01T06:32:56;28.60;;;18.27;;
4839;SDS011;2434;48.486;7.964;2023-03-01T06:35:27;34.03;;;17.03;;
4839;SDS011;2434;48.486;7.964;2023-03-01T06:37:57;29.03;;;18.20;;
4839;SDS011;2434;48.486;7.964;2023-03-01T06:40:26;26.43;;;17.33;;
4839;SDS011;2434;48.486;7.964;2023-03-01T06:42:55;32.13;;;18.83;;
4839;SDS011;2434;48.486;7.964;2023-03-01T06:45:24;32.93;;;19.13;;
4839;SDS011;2434;48.486;7.964;2023-03-01T06:47:57;30.83;;;18.93;;
4839;SDS011;2434;48.486;7.964;2023-03-01T06:50:30;31.70;;;19.20;;
4839;SDS011;2434;48.486;7.964;2023-03-01T06:52:58;35.43;;;20.20;;
4839;SDS011;2434;48.486;7.964;2023-03-01T06:55:27;31.77;;;18.93;;
4839;SDS011;2434;48.486;7.964;2023-03-01T06:57:56;29.53;;;18.07;;
4839;SDS011;2434;48.486;7.964;2023-03-01T07:00:26;30.57;;;17.40;;
4839;SDS011;2434;48.486;7.964;2023-03-01T07:02:54;29.17;;;17.50;;
4839;SDS011;2434;48.486;7.964;2023-03-01T07:05:26;34.00;;;18.37;;
4839;SDS011;2434;48.486;7.964;2023-03-01T07:07:55;38.20;;;18.00;;
4839;SDS011;2434;48.486;7.964;2023-03-01T07:10:23;31.30;;;19.23;;
4839;SDS011;2434;48.486;7.964;2023-03-01T07:12:53;34.73;;;20.10;;
4839;SDS011;2434;48.486;7.964;2023-03-01T07:15:22;37.17;;;20.53;;
4839;SDS011;2434;48.486;7.964;2023-03-01T07:17:52;30.17;;;18.90;;
4839;SDS011;2434;48.486;7.964;2023-03-01T07:20:21;35.33;;;19.13;;
4839;SDS011;2434;48.486;7.964;2023-03-01T07:22:51;36.00;;;19.80;;
4839;SDS011;2434;48.486;7.964;2023-03-01T07:25:20;37.50;;;22.37;;
4839;SDS011;2434;48.486;7.964;2023-03-01T07:27:49;31.77;;;18.80;;
4839;SDS011;2434;48.486;7.964;2023-03-01T07:30:19;33.87;;;19.43;;
4839;SDS011;2434;48.486;7.964;2023-03-01T07:32:47;30.87;;;19.10;;
4839;SDS011;2434;48.486;7.964;2023-03-01T07:35:17;30.00;;;18.63;;
4839;SDS011;2434;48.486;7.964;2023-03-01T07:37:45;30.63;;;18.13;;
4839;SDS011;2434;48.486;7.964;2023-03-01T07:40:14;36.00;;;20.93;;
4839;SDS011;2434;48.486;7.964;2023-03-01T07:42:42;36.60;;;19.93;;
4839;SDS011;2434;48.486;7.964;2023-03-01T07:45:10;29.87;;;18.27;;
4839;SDS011;2434;48.486;7.964;2023-03-01T07:47:39;33.93;;;19.97;;
4839;SDS011;2434;48.486;7.964;2023-03-01T07:50:08;34.60;;;20.30;;
4839;SDS011;2434;48.486;7.964;2023-03-01T07:52:39;35.80;;;20.00;;
4839;SDS011;2434;48.486;7.964;2023-03-01T07:55:07;32.13;;;20.10;;
4839;SDS011;2434;48.486;7.964;2023-03-01T07:57:36;35.13;;;19.57;;
4839;SDS011;2434;48.486;7.964;2023-03-01T08:00:05;30.83;;;17.90;;
4839;SDS011;2434;48.486;7.964;2023-03-01T08:02:39;32.30;;;18.33;;
4839;SDS011;2434;48.486;7.964;2023-03-01T08:05:08;30.47;;;19.77;;
4839;SDS011;2434;48.486;7.964;2023-03-01T08:07:36;35.07;;;18.67;;
4839;SDS011;2434;48.486;7.964;2023-03-01T08:10:06;30.57;;;18.83;;
4839;SDS011;2434;48.486;7.964;2023-03-01T08:12:35;29.17;;;18.93;;
4839;SDS011;2434;48.486;7.964;2023-03-01T08:15:04;34.20;;;20.00;;
4839;SDS011;2434;48.486;7.964;2023-03-01T08:17:33;34.90;;;19.90;;
4839;SDS011;2434;48.486;7.964;2023-03-01T08:20:01;35.50;;;19.63;;
4839;SDS011;2434;48.486;7.964;2023-03-01T08:22:32;34.97;;;20.40;;
4839;SDS011;2434;48.486;7.964;2023-03-01T08:25:02;40.17;;;21.83;;
4839;SDS011;2434;48.486;7.964;2023-03-01T08:27:30;36.40;;;20.37;;
4839;SDS011;2434;48.486;7.964;2023-03-01T08:29:58;36.13;;;21.50;;
4839;SDS011;2434;48.486;7.964;2023-03-01T08:32:26;34.30;;;20.70;;
4839;SDS011;2434;48.486;7.964;2023-03-01T08:34:54;43.03;;;22.97;;
4839;SDS011;2434;48.486;7.964;2023-03-01T08:37:23;42.83;;;23.23;;
4839;SDS011;2434;48.486;7.964;2023-03-01T08:39:51;38.70;;;22.23;;
4839;SDS011;2434;48.486;7.964;2023-03-01T08:42:22;35.67;;;21.17;;
4839;SDS011;2434;48.486;7.964;2023-03-01T08:44:50;43.17;;;22.40;;
4839;SDS011;2434;48.486;7.964;2023-03-01T08:47:19;36.77;;;20.50;;
4839;SDS011;2434;48.486;7.964;2023-03-01T08:49:48;36.77;;;23.00;;
4839;SDS011;2434;48.486;7.964;2023-03-01T08:52:17;43.07;;;23.47;;
4839;SDS011;2434;48.486;7.964;2023-03-01T08:54:46;36.30;;;21.87;;
4839;SDS011;2434;48.486;7.964;2023-03-01T08:57:15;41.73;;;21.23;;
4839;SDS011;2434;48.486;7.964;2023-03-01T08:59:45;46.80;;;22.13;;
4839;SDS011;2434;48.486;7.964;2023-03-01T09:02:14;32.60;;;20.43;;
4839;SDS011;2434;48.486;7.964;2023-03-01T09:04:44;41.70;;;22.73;;
4839;SDS011;2434;48.486;7.964;2023-03-01T09:07:12;34.97;;;21.43;;
4839;SDS011;2434;48.486;7.964;2023-03-01T09:09:40;36.67;;;22.30;;
4839;SDS011;2434;48.486;7.964;2023-03-01T09:12:08;35.07;;;20.63;;
4839;SDS011;2434;48.486;7.964;2023-03-01T09:14:36;38.47;;;21.70;;
4839;SDS011;2434;48.486;7.964;2023-03-01T09:17:06;47.23;;;23.83;;
4839;SDS011;2434;48.486;7.964;2023-03-01T09:19:34;42.23;;;21.60;;
4839;SDS011;2434;48.486;7.964;2023-03-01T09:22:03;40.70;;;23.47;;
4839;SDS011;2434;48.486;7.964;2023-03-01T09:24:31;35.60;;;21.53;;
4839;SDS011;2434;48.486;7.964;2023-03-01T09:26:59;34.50;;;22.03;;
4839;SDS011;2434;48.486;7.964;2023-03-01T09:29:27;36.07;;;22.00;;
4839;SDS011;2434;48.486;7.964;2023-03-01T09:31:55;39.87;;;22.73;;
4839;SDS011;2434;48.486;7.964;2023-03-01T09:34:26;43.60;;;25.50;;
4839;SDS011;2434;48.486;7.964;2023-03-01T09:36:54;39.50;;;23.17;;
4839;SDS011;2434;48.486;7.964;2023-03-01T09:39:24;44.27;;;24.50;;
4839;SDS011;2434;48.486;7.964;2023-03-01T09:41:54;39.67;;;23.40;;
4839;SDS011;2434;48.486;7.964;2023-03-01T09:44:29;32.50;;;21.67;;
4839;SDS011;2434;48.486;7.964;2023-03-01T09:47:03;42.67;;;22.63;;
4839;SDS011;2434;48.486;7.964;2023-03-01T09:49:33;31.03;;;20.00;;
4839;SDS011;2434;48.486;7.964;2023-03-01T09:52:06;37.37;;;23.17;;
4839;SDS011;2434;48.486;7.964;2023-03-01T09:54:48;40.07;;;24.30;;
4839;SDS011;2434;48.486;7.964;2023-03-01T09:57:23;36.20;;;23.37;;
4839;SDS011;2434;48.486;7.964;2023-03-01T10:00:00;52.20;;;24.00;;
4839;SDS011;2434;48.486;7.964;2023-03-01T10:02:41;38.23;;;22.87;;
4839;SDS011;2434;48.486;7.964;2023-03-01T10:05:26;39.57;;;22.57;;
4839;SDS011;2434;48.486;7.964;2023-03-01T10:08:06;35.67;;;21.83;;
4839;SDS011;2434;48.486;7.964;2023-03-01T10:10:57;35.43;;;21.50;;
4839;SDS011;2434;48.486;7.964;2023-03-01T10:13:27;36.33;;;22.43;;
4839;SDS011;2434;48.486;7.964;2023-03-01T10:16:02;39.20;;;23.30;;
4839;SDS011;2434;48.486;7.964;2023-03-01T10:18:36;35.23;;;21.47;;
4839;SDS011;2434;48.486;7.964;2023-03-01T10:21:11;37.90;;;21.67;;
4839;SDS011;2434;48.486;7.964;2023-03-01T10:23:42;37.20;;;21.87;;
4839;SDS011;2434;48.486;7.964;2023-03-01T10:26:18;40.90;;;23.60;;
4839;SDS011;2434;48.486;7.964;2023-03-01T10:29:00;40.10;;;22.47;;
4839;SDS011;2434;48.486;7.964;2023-03-01T10:31:34;37.20;;;22.53;;
4839;SDS011;2434;48.486;7.964;2023-03-01T10:34:10;37.17;;;21.70;;
4839;SDS011;2434;48.486;7.964;2023-03-01T10:36:42;36.10;;;23.27;;
4839;SDS011;2434;48.486;7.964;2023-03-01T10:39:13;32.13;;;20.60;;
4839;SDS011;2434;48.486;7.964;2023-03-01T10:41:52;44.33;;;23.03;;
4839;SDS011;2434;48.486;7.964;2023-03-01T10:44:39;33.73;;;21.20;;
4839;SDS011;2434;48.486;7.964;2023-03-01T10:47:14;38.13;;;21.73;;
4839;SDS011;2434;48.486;7.964;2023-03-01T10:49:56;32.60;;;21.27;;
4839;SDS011;2434;48.486;7.964;2023-03-01T10:52:29;39.10;;;21.17;;
4839;SDS011;2434;48.486;7.964;2023-03-01T10:55:01;30.97;;;21.27;;
4839;SDS011;2434;48.486;7.964;2023-03-01T10:57:33;32.27;;;20.87;;
4839;SDS011;2434;48.486;7.964;2023-03-01T11:00:24;36.73;;;22.80;;
4839;SDS011;2434;48.486;7.964;2023-03-01T11:03:03;33.93;;;22.50;;
4839;SDS011;2434;48.486;7.964;2023-03-01T11:05:50;32.97;;;21.50;;
4839;SDS011;2434;48.486;7.964;2023-03-01T11:08:33;36.90;;;22.37;;
4839;SDS011;2434;48.486;7.964;2023-03-01T11:11:10;36.70;;;21.57;;
4839;SDS011;2434;48.486;7.964;2023-03-01T11:13:49;44.80;;;22.80;;
4839;SDS011;2434;48.486;7.964;2023-03-01T11:16:23;33.40;;;21.13;;
4839;SDS011;2434;48.486;7.964;2023-03-01T11:19:03;35.70;;;22.10;;
4839;SDS011;2434;48.486;7.964;2023-03-01T11:21:43;33.10;;;21.43;;
4839;SDS011;2434;48.486;7.964;2023-03-01T11:24:18;33.07;;;20.60;;
4839;SDS011;2434;48.486;7.964;2023-03-01T11:26:48;35.37;;;22.67;;
4839;SDS011;2434;48.486;7.964;2023-03-01T11:29:24;31.97;;;21.77;;
4839;SDS011;2434;48.486;7.964;2023-03-01T11:32:06;40.30;;;21.70;;
4839;SDS011;2434;48.486;7.964;2023-03-01T11:34:40;33.07;;;20.87;;
4839;SDS011;2434;48.486;7.964;2023-03-01T11:37:14;33.53;;;21.83;;
4839;SDS011;2434;48.486;7.964;2023-03-01T11:39:54;36.27;;;21.27;;
4839;SDS011;2434;48.486;7.964;2023-03-01T11:42:30;36.30;;;23.43;;
4839;SDS011;2434;48.486;7.964;2023-03-01T11:45:08;36.47;;;23.27;;
4839;SDS011;2434;48.486;7.964;2023-03-01T11:47:43;37.53;;;21.00;;
4839;SDS011;2434;48.486;7.964;2023-03-01T11:50:19;36.30;;;21.40;;
4839;SDS011;2434;48.486;7.964;2023-03-01T11:53:02;38.07;;;23.77;;
4839;SDS011;2434;48.486;7.964;2023-03-01T11:55:50;35.77;;;23.60;;
4839;SDS011;2434;48.486;7.964;2023-03-01T11:58:29;38.13;;;22.43;;
4839;SDS011;2434;48.486;7.964;2023-03-01T12:01:15;37.30;;;21.90;;
4839;SDS011;2434;48.486;7.964;2023-03-01T12:07:03;35.67;;;22.60;;
4839;SDS011;2434;48.486;7.964;2023-03-01T12:09:39;35.60;;;23.00;;
4839;SDS011;2434;48.486;7.964;2023-03-01T12:12:34;35.33;;;22.87;;
4839;SDS011;2434;48.486;7.964;2023-03-01T12:15:33;35.57;;;21.93;;
4839;SDS011;2434;48.486;7.964;2023-03-01T12:21:15;34.47;;;21.70;;
4839;SDS011;2434;48.486;7.964;2023-03-01T12:23:54;33.03;;;21.57;;
4839;SDS011;2434;48.486;7.964;2023-03-01T12:26:41;38.77;;;22.40;;
4839;SDS011;2434;48.486;7.964;2023-03-01T12:29:26;37.40;;;22.80;;
4839;SDS011;2434;48.486;7.964;2023-03-01T12:35:05;36.00;;;22.33;;
4839;SDS011;2434;48.486;7.964;2023-03-01T12:37:50;37.27;;;21.40;;
4839;SDS011;2434;48.486;7.964;2023-03-01T12:43:20;34.10;;;21.13;;
4839;SDS011;2434;48.486;7.964;2023-03-01T12:46:08;35.70;;;21.27;;
4839;SDS011;2434;48.486;7.964;2023-03-01T12:48:47;36.40;;;23.30;;
4839;SDS011;2434;48.486;7.964;2023-03-01T12:51:23;36.00;;;22.67;;
4839;SDS011;2434;48.486;7.964;2023-03-01T12:53:54;34.33;;;22.70;;
4839;SDS011;2434;48.486;7.964;2023-03-01T12:56:25;37.70;;;23.90;;
4839;SDS011;2434;48.486;7.964;2023-03-01T12:58:59;33.77;;;21.77;;
4839;SDS011;2434;48.486;7.964;2023-03-01T13:01:41;37.53;;;23.60;;
4839;SDS011;2434;48.486;7.964;2023-03-01T13:04:18;37.77;;;22.80;;
4839;SDS011;2434;48.486;7.964;2023-03-01T13:06:57;33.90;;;21.17;;
4839;SDS011;2434;48.486;7.964;2023-03-01T13:09:34;35.90;;;22.90;;
4839;SDS011;2434;48.486;7.964;2023-03-01T13:15:24;34.10;;;22.90;;
4839;SDS011;2434;48.486;7.964;2023-03-01T13:17:58;46.03;;;23.70;;
4839;SDS011;2434;48.486;7.964;2023-03-01T13:20:30;40.40;;;22.57;;
4839;SDS011;2434;48.486;7.964;2023-03-01T13:23:02;33.20;;;21.80;;
4839;SDS011;2434;48.486;7.964;2023-03-01T13:25:33;35.20;;;22.83;;
4839;SDS011;2434;48.486;7.964;2023-03-01T13:31:07;36.80;;;25.00;;
4839;SDS011;2434;48.486;7.964;2023-03-01T13:33:41;34.83;;;22.33;;
4839;SDS011;2434;48.486;7.964;2023-03-01T13:39:27;31.80;;;21.97;;
4839;SDS011;2434;48.486;7.964;2023-03-01T13:41:59;35.33;;;23.70;;
4839;SDS011;2434;48.486;7.964;2023-03-01T13:44:30;35.37;;;23.30;;
4839;SDS011;2434;48.486;7.964;2023-03-01T13:47:05;37.70;;;23.00;;
4839;SDS011;2434;48.486;7.964;2023-03-01T13:49:47;33.63;;;23.13;;
4839;SDS011;2434;48.486;7.964;2023-03-01T13:52:25;37.40;;;21.17;;
4839;SDS011;2434;48.486;7.964;2023-03-01T13:55:03;32.90;;;20.97;;
4839;SDS011;2434;48.486;7.964;2023-03-01T13:57:34;33.67;;;23.00;;
4839;SDS011;2434;48.486;7.964;2023-03-01T14:00:05;39.53;;;22.97;;
4839;SDS011;2434;48.486;7.964;2023-03-01T14:02:35;38.83;;;21.83;;
4839;SDS011;2434;48.486;7.964;2023-03-01T14:05:05;39.90;;;21.53;;
4839;SDS011;2434;48.486;7.964;2023-03-01T14:07:38;40.83;;;22.57;;
4839;SDS011;2434;48.486;7.964;2023-03-01T14:10:11;33.17;;;20.33;;
4839;SDS011;2434;48.486;7.964;2023-03-01T14:12:41;29.73;;;20.60;;
4839;SDS011;2434;48.486;7.964;2023-03-01T14:15:18;35.30;;;22.03;;
4839;SDS011;2434;48.486;7.964;2023-03-01T14:17:55;40.13;;;21.73;;
4839;SDS011;2434;48.486;7.964;2023-03-01T14:20:32;30.47;;;20.20;;
4839;SDS011;2434;48.486;7.964;2023-03-01T14:23:09;35.60;;;21.70;;
4839;SDS011;2434;48.486;7.964;2023-03-01T14:25:45;35.37;;;22.53;;
4839;SDS011;2434;48.486;7.964;2023-03-01T14:28:16;32.13;;;20.40;;
4839;SDS011;2434;48.486;7.964;2023-03-01T14:30:47;36.03;;;22.63;;
4839;SDS011;2434;48.486;7.964;2023-03-01T14:33:18;33.27;;;21.03;;
4839;SDS011;2434;48.486;7.964;2023-03-01T14:35:55;31.50;;;21.07;;
4839;SDS011;2434;48.486;7.964;2023-03-01T14:38:29;31.10;;;21.00;;
4839;SDS011;2434;48.486;7.964;2023-03-01T14:41:00;32.67;;;19.60;;
4839;SDS011;2434;48.486;7.964;2023-03-01T14:43:32;32.40;;;21.73;;
4839;SDS011;2434;48.486;7.964;2023-03-01T14:46:01;35.80;;;22.03;;
4839;SDS011;2434;48.486;7.964;2023-03-01T14:48:29;34.47;;;21.00;;
4839;SDS011;2434;48.486;7.964;2023-03-01T14:51:01;35.67;;;20.83;;
4839;SDS011;2434;48.486;7.964;2023-03-01T14:53:31;35.10;;;21.20;;
4839;SDS011;2434;48.486;7.964;2023-03-01T14:56:16;33.70;;;20.57;;
4839;SDS011;2434;48.486;7.964;2023-03-01T14:58:45;30.60;;;21.07;;
4839;SDS011;2434;48.486;7.964;2023-03-01T15:01:15;33.80;;;21.13;;
4839;SDS011;2434;48.486;7.964;2023-03-01T15:03:45;37.73;;;22.20;;
4839;SDS011;2434;48.486;7.964;2023-03-01T15:06:17;31.83;;;20.97;;
4839;SDS011;2434;48.486;7.964;2023-03-01T15:08:48;35.40;;;22.07;;
4839;SDS011;2434;48.486;7.964;2023-03-01T15:11:20;37.90;;;20.67;;
4839;SDS011;2434;48.486;7.964;2023-03-01T15:13:51;31.70;;;21.23;;
4839;SDS011;2434;48.486;7.964;2023-03-01T15:16:21;37.63;;;21.80;;
4839;SDS011;2434;48.486;7.964;2023-03-01T15:18:52;37.47;;;24.20;;
4839;SDS011;2434;48.486;7.964;2023-03-01T15:21:25;28.83;;;19.70;;
4839;SDS011;2434;48.486;7.964;2023-03-01T15:24:05;30.33;;;20.93;;
4839;SDS011;2434;48.486;7.964;2023-03-01T15:26:39;41.13;;;22.40;;
4839;SDS011;2434;48.486;7.964;2023-03-01T15:29:12;40.80;;;21.63;;
4839;SDS011;2434;48.486;7.964;2023-03-01T15:31:53;35.03;;;21.47;;
4839;SDS011;2434;48.486;7.964;2023-03-01T15:34:23;31.20;;;20.70;;
4839;SDS011;2434;48.486;7.964;2023-03-01T15:36:54;34.53;;;21.33;;
4839;SDS011;2434;48.486;7.964;2023-03-01T15:39:32;36.73;;;22.17;;
4839;SDS011;2434;48.486;7.964;2023-03-01T15:42:05;35.60;;;22.13;;